Terminal Aerodrome Forecast
Issued by NWS

Current Version | Previous Version | Text Only | Print | Product List | Glossary On
Versions: 1 2 3 4 5 6 7 8 9 10 11 12 13 14 15 16 17 18 19 20 21 22 23 24 25 26 27 28 29 30
000
FTAK31 PAFA 302334
TAFAMC
TAF
PAMC 302334Z 3100/3124 27006KT P6SM VCSH BKN025 OVC035
     FM311200 VRB04KT P6SM VCFG FEW005 BKN035 OVC050=

USA.gov is the U.S. government's official web portal to all federal, state and local government web resources and services.